createdAt,value
2019-05-17T00:01:37.777Z,6.80
2019-05-17T00:04:29.075Z,6.97
2019-05-17T00:07:19.280Z,6.67
2019-05-17T00:10:10.070Z,6.70
2019-05-17T00:13:00.331Z,6.90
2019-05-17T00:15:50.457Z,6.90
2019-05-17T00:18:40.777Z,6.53
2019-05-17T00:21:30.925Z,6.67
2019-05-17T00:24:21.360Z,6.77
2019-05-17T00:27:11.745Z,7.60
2019-05-17T00:30:01.962Z,6.70
2019-05-17T00:32:52.525Z,6.23
2019-05-17T00:35:42.589Z,7.17
2019-05-17T00:38:45.582Z,6.57
2019-05-17T00:41:26.897Z,6.80
2019-05-17T00:44:16.996Z,6.60
2019-05-17T00:47:07.236Z,6.10
2019-05-17T00:49:57.553Z,6.57
2019-05-17T00:52:47.752Z,6.70
2019-05-17T00:55:37.911Z,6.60
2019-05-17T00:58:28.274Z,6.80
2019-05-17T01:01:18.747Z,7.40
2019-05-17T01:04:08.773Z,6.97
2019-05-17T01:06:59.053Z,6.80
2019-05-17T01:09:49.667Z,7.33
2019-05-17T01:12:39.720Z,7.13
2019-05-17T01:15:30.025Z,7.17
2019-05-17T01:18:20.065Z,7.40
2019-05-17T01:21:10.319Z,7.73
2019-05-17T01:24:00.659Z,7.50
2019-05-17T01:26:51.274Z,7.43
2019-05-17T01:29:41.764Z,8.13
2019-05-17T01:32:31.992Z,7.73
2019-05-17T01:35:21.958Z,8.40
2019-05-17T01:38:12.150Z,7.80
2019-05-17T01:41:02.111Z,7.80
2019-05-17T01:43:53.057Z,7.77
2019-05-17T01:46:43.175Z,8.30
2019-05-17T01:49:33.568Z,8.03
2019-05-17T01:52:23.792Z,7.80
2019-05-17T01:55:14.029Z,7.43
2019-05-17T01:58:04.073Z,8.03
2019-05-17T02:00:54.367Z,7.40
2019-05-17T02:03:46.762Z,7.20
2019-05-17T02:06:36.796Z,7.67
2019-05-17T02:09:37.148Z,7.57
2019-05-17T02:12:19.198Z,8.23
2019-05-17T02:15:09.576Z,8.93
2019-05-17T02:17:59.794Z,8.23
2019-05-17T02:20:49.908Z,8.50
2019-05-17T02:23:39.873Z,8.37
2019-05-17T02:26:30.007Z,7.90
2019-05-17T02:29:21.445Z,8.13
2019-05-17T02:32:12.883Z,7.80
2019-05-17T02:35:03.611Z,8.10
2019-05-17T02:37:53.875Z,7.80
2019-05-17T02:40:43.814Z,6.93
2019-05-17T02:43:34.074Z,7.20
2019-05-17T02:46:24.054Z,6.40
2019-05-17T02:49:14.402Z,5.70
2019-05-17T02:52:04.672Z,6.10
2019-05-17T02:54:55.901Z,5.60
2019-05-17T02:57:46.215Z,5.77
2019-05-17T03:00:36.468Z,5.60
2019-05-17T03:03:26.653Z,5.63
2019-05-17T03:06:16.959Z,5.27
2019-05-17T03:09:07.622Z,6.23
2019-05-17T03:11:57.712Z,6.20
2019-05-17T03:14:48.102Z,5.90
2019-05-17T03:17:38.343Z,6.17
2019-05-17T03:20:28.671Z,5.90
2019-05-17T03:23:18.700Z,6.13
2019-05-17T03:26:12.774Z,6.77
2019-05-17T03:29:03.284Z,6.37
2019-05-17T03:31:59.786Z,6.87
2019-05-17T03:34:45.149Z,8.20
2019-05-17T03:37:37.884Z,8.20
2019-05-17T03:41:00.558Z,8.27
2019-05-17T03:43:22.430Z,8.07
2019-05-17T03:46:13.953Z,8.33
2019-05-17T03:49:04.131Z,8.53
2019-05-17T03:51:55.115Z,8.33
2019-05-17T03:54:45.598Z,8.67
2019-05-17T03:57:35.970Z,7.83
2019-05-17T04:00:25.894Z,8.00
2019-05-17T04:03:16.121Z,7.77
2019-05-17T04:06:06.429Z,7.73
2019-05-17T04:08:56.667Z,6.93
2019-05-17T04:11:46.677Z,7.80
2019-05-17T04:14:37.990Z,6.90
2019-05-17T04:17:28.373Z,6.77
2019-05-17T04:20:18.526Z,7.07
2019-05-17T04:23:08.931Z,6.40
2019-05-17T04:26:03.779Z,6.93
2019-05-17T04:28:53.320Z,6.77
2019-05-17T04:31:44.069Z,6.40
2019-05-17T04:34:34.220Z,6.80
2019-05-17T04:37:24.829Z,5.92
2019-05-17T04:40:15.675Z,6.28
2019-05-17T04:43:06.558Z,6.50
2019-05-17T04:45:57.156Z,6.10
2019-05-17T04:48:48.018Z,5.97
2019-05-17T04:51:38.875Z,6.20
2019-05-17T04:54:33.096Z,5.72
2019-05-17T04:57:23.118Z,5.62
2019-05-17T05:00:14.024Z,5.90
2019-05-17T05:03:04.722Z,5.50
2019-05-17T05:05:55.621Z,5.90
2019-05-17T05:08:46.437Z,6.30
2019-05-17T05:11:51.883Z,5.78
2019-05-17T05:14:29.336Z,6.00
2019-05-17T05:17:22.171Z,6.15
2019-05-17T05:20:13.722Z,5.62
2019-05-17T05:23:04.617Z,5.10
2019-05-17T05:25:56.611Z,5.47
2019-05-17T05:28:49.711Z,5.47
2019-05-17T05:31:42.602Z,5.05
2019-05-17T05:34:32.773Z,5.22
2019-05-17T05:37:23.654Z,5.37
2019-05-17T05:40:14.591Z,5.22
2019-05-17T05:43:05.426Z,4.80
2019-05-17T05:45:56.367Z,5.03
2019-05-17T05:48:47.381Z,4.92
2019-05-17T05:51:37.903Z,4.60
2019-05-17T05:54:28.200Z,5.17
2019-05-17T05:57:18.792Z,4.90
2019-05-17T06:00:12.716Z,5.00
2019-05-17T06:03:04.227Z,5.03
2019-05-17T06:05:54.935Z,4.70
2019-05-17T06:08:45.457Z,4.23
2019-05-17T06:11:35.981Z,4.47
2019-05-17T06:14:26.259Z,4.30
2019-05-17T06:17:16.731Z,4.80
2019-05-17T06:20:07.860Z,4.70
2019-05-17T06:22:58.432Z,4.90
2019-05-17T06:25:48.859Z,5.20
2019-05-17T06:28:39.293Z,3.80
2019-05-17T06:31:29.799Z,3.90
2019-05-17T06:34:22.322Z,4.63
2019-05-17T06:37:14.897Z,3.73
2019-05-17T06:40:05.156Z,4.07
2019-05-17T06:42:55.432Z,4.13
2019-05-17T06:45:45.658Z,3.27
2019-05-17T06:48:36.183Z,4.00
2019-05-17T06:51:26.761Z,3.43
2019-05-17T06:54:17.029Z,3.90
2019-05-17T06:57:07.481Z,2.90
2019-05-17T06:59:59.381Z,2.73
2019-05-17T07:02:50.134Z,2.40
2019-05-17T07:05:42.352Z,2.50
2019-05-17T07:08:32.674Z,2.50
2019-05-17T07:11:23.194Z,2.30
2019-05-17T07:14:13.925Z,2.50
2019-05-17T07:17:04.627Z,2.90
2019-05-17T07:19:55.309Z,2.40
2019-05-17T07:22:45.538Z,2.90
2019-05-17T07:25:36.208Z,2.30
2019-05-17T07:28:26.446Z,2.60
2019-05-17T07:31:19.377Z,2.55
2019-05-17T07:34:10.458Z,3.00
2019-05-17T07:37:01.262Z,3.10
2019-05-17T07:40:01.195Z,2.80
2019-05-17T07:42:44.623Z,2.80
2019-05-17T07:45:35.143Z,2.77
2019-05-17T07:48:26.091Z,2.95
2019-05-17T07:51:19.360Z,2.60
2019-05-17T07:54:10.475Z,2.35
2019-05-17T07:57:02.379Z,2.30
2019-05-17T07:59:53.247Z,2.52
2019-05-17T08:02:44.056Z,2.75
2019-05-17T08:05:34.752Z,2.87
2019-05-17T08:08:25.527Z,2.70
2019-05-17T08:11:16.484Z,3.30
2019-05-17T08:14:07.612Z,3.45
2019-05-17T08:16:59.899Z,3.08
2019-05-17T08:19:51.076Z,3.42
2019-05-17T08:22:42.027Z,3.10
2019-05-17T08:25:32.877Z,3.15
2019-05-17T08:28:23.695Z,3.08
2019-05-17T08:31:14.439Z,3.08
2019-05-17T08:34:05.236Z,3.52
2019-05-17T08:36:56.100Z,3.55
2019-05-17T08:39:46.701Z,3.30
2019-05-17T08:42:40.662Z,3.15
2019-05-17T08:45:31.030Z,2.98
2019-05-17T08:48:21.880Z,3.40
2019-05-17T08:51:12.497Z,3.10
2019-05-17T08:54:03.242Z,2.95
2019-05-17T08:56:54.139Z,3.08
2019-05-17T08:59:44.770Z,2.80
2019-05-17T09:02:35.701Z,2.90
2019-05-17T09:05:26.701Z,2.70
2019-05-17T09:08:17.513Z,2.60
2019-05-17T09:11:09.931Z,2.92
2019-05-17T09:14:02.107Z,2.90
2019-05-17T09:16:54.326Z,2.58
2019-05-17T09:19:45.429Z,2.75
2019-05-17T09:22:36.443Z,2.62
2019-05-17T09:25:30.094Z,2.50
2019-05-17T09:28:20.460Z,2.70
2019-05-17T09:31:11.927Z,2.65
2019-05-17T09:34:02.576Z,2.67
2019-05-17T09:36:53.522Z,2.33
2019-05-17T09:39:44.303Z,2.40
2019-05-17T09:42:35.161Z,2.60
2019-05-17T09:45:25.977Z,2.20
2019-05-17T09:48:19.487Z,2.12
2019-05-17T09:51:10.489Z,2.58
2019-05-17T09:54:01.420Z,2.72
2019-05-17T09:56:52.154Z,2.47
2019-05-17T09:59:43.116Z,2.50
2019-05-17T10:02:33.681Z,2.77
2019-05-17T10:05:24.553Z,2.70
2019-05-17T10:08:15.428Z,2.50
2019-05-17T10:11:09.656Z,2.60
2019-05-17T10:14:01.128Z,2.90
2019-05-17T10:16:50.573Z,2.60
2019-05-17T10:19:41.422Z,3.55
2019-05-17T10:22:34.075Z,3.27
2019-05-17T10:25:24.814Z,3.83
2019-05-17T10:28:15.695Z,2.90
2019-05-17T10:31:06.481Z,2.80
2019-05-17T10:33:58.898Z,2.85
2019-05-17T10:36:50.696Z,2.50
2019-05-17T10:39:41.887Z,2.85
2019-05-17T10:42:32.711Z,2.87
2019-05-17T10:45:23.802Z,2.60
2019-05-17T10:48:14.597Z,3.02
2019-05-17T10:51:05.395Z,3.10
2019-05-17T10:53:56.196Z,3.25
2019-05-17T10:56:46.923Z,4.00
2019-05-17T10:59:37.789Z,4.33
2019-05-17T11:02:30.466Z,6.62
2019-05-17T11:05:22.042Z,6.87
2019-05-17T11:08:12.607Z,7.30
2019-05-17T11:11:03.532Z,7.25
2019-05-17T11:13:54.475Z,7.08
2019-05-17T11:16:45.274Z,6.67
2019-05-17T11:19:35.981Z,6.20
2019-05-17T11:22:26.605Z,5.75
2019-05-17T11:25:17.609Z,6.25
2019-05-17T11:28:08.185Z,6.03
2019-05-17T11:30:59.239Z,5.45
2019-05-17T11:33:50.244Z,5.28
2019-05-17T11:36:40.995Z,5.12
2019-05-17T11:39:31.826Z,4.05
2019-05-17T11:42:22.666Z,4.20
2019-05-17T11:45:26.744Z,3.77
2019-05-17T11:48:05.913Z,3.80
2019-05-17T11:50:56.744Z,3.92
2019-05-17T11:53:47.567Z,3.92
2019-05-17T11:56:38.415Z,3.60
2019-05-17T11:59:29.233Z,4.10
2019-05-17T12:02:21.582Z,4.05
2019-05-17T12:05:12.378Z,4.08
2019-05-17T12:08:02.574Z,4.08
2019-05-17T12:10:53.321Z,4.28
2019-05-17T12:13:44.146Z,4.30
2019-05-17T12:16:35.121Z,4.20
2019-05-17T12:19:25.773Z,4.45
2019-05-17T12:22:17.666Z,4.12
2019-05-17T12:25:09.631Z,3.75
2019-05-17T12:28:00.641Z,4.28
2019-05-17T12:30:51.251Z,4.50
2019-05-17T12:33:42.078Z,4.00
2019-05-17T12:36:32.797Z,3.80
2019-05-17T12:39:27.430Z,4.25
2019-05-17T12:42:23.563Z,4.30
2019-05-17T12:45:19.796Z,4.03
2019-05-17T12:48:12.362Z,4.65
2019-05-17T12:51:05.485Z,3.87
2019-05-17T12:53:58.192Z,4.47
2019-05-17T12:56:52.323Z,4.22
2019-05-17T12:59:43.663Z,4.20
2019-05-17T13:02:37.213Z,4.33
2019-05-17T13:05:29.179Z,3.90
2019-05-17T13:08:20.222Z,4.00
2019-05-17T13:11:10.780Z,3.87
2019-05-17T13:14:01.743Z,4.10
2019-05-17T13:16:52.291Z,4.50
2019-05-17T13:19:43.185Z,4.10
2019-05-17T13:22:34.807Z,4.30
2019-05-17T13:25:24.799Z,4.10
2019-05-17T13:28:15.042Z,4.15
2019-05-17T13:31:05.642Z,4.40
2019-05-17T13:33:56.395Z,4.30
2019-05-17T13:36:47.053Z,4.40
2019-05-17T13:39:37.771Z,4.50
2019-05-17T13:42:28.427Z,4.25
2019-05-17T13:45:19.072Z,4.28
2019-05-17T13:48:09.933Z,4.20
2019-05-17T13:51:00.482Z,4.20
2019-05-17T13:53:51.296Z,4.25
2019-05-17T13:56:41.885Z,3.70
2019-05-17T13:59:32.156Z,4.20
2019-05-17T14:02:23.062Z,4.10
2019-05-17T14:05:13.163Z,4.05
2019-05-17T14:08:04.083Z,4.12
2019-05-17T14:10:54.308Z,4.40
2019-05-17T14:13:44.727Z,4.70
2019-05-17T14:16:35.806Z,5.00
2019-05-17T14:19:26.083Z,4.80
2019-05-17T14:22:16.297Z,4.87
2019-05-17T14:25:06.639Z,4.53
2019-05-17T14:27:57.786Z,5.90
2019-05-17T14:30:47.891Z,4.73
2019-05-17T14:33:38.227Z,4.60
2019-05-17T14:36:28.506Z,4.67
2019-05-17T14:39:18.965Z,4.40
2019-05-17T14:42:09.195Z,4.47
2019-05-17T14:44:59.436Z,4.30
2019-05-17T14:47:49.552Z,4.53
2019-05-17T14:50:39.881Z,5.03
2019-05-17T14:53:30.150Z,4.23
2019-05-17T14:56:20.126Z,4.47
2019-05-17T14:59:11.042Z,4.50
2019-05-17T15:02:01.336Z,4.53
2019-05-17T15:04:51.312Z,4.10
2019-05-17T15:07:41.715Z,4.50
2019-05-17T15:10:31.838Z,4.33
2019-05-17T15:13:22.293Z,4.47
2019-05-17T15:16:12.391Z,4.10
2019-05-17T15:19:02.451Z,4.40
2019-05-17T15:21:52.384Z,4.57
2019-05-17T15:24:43.694Z,4.20
2019-05-17T15:27:33.999Z,4.23
2019-05-17T15:30:24.066Z,4.20
2019-05-17T15:33:14.374Z,4.00
2019-05-17T15:36:04.600Z,4.20
2019-05-17T15:38:57.568Z,4.50
2019-05-17T15:41:49.024Z,4.23
2019-05-17T15:44:39.245Z,4.10
2019-05-17T15:47:29.520Z,4.20
2019-05-17T15:50:19.759Z,4.20
2019-05-17T15:53:10.262Z,4.00
2019-05-17T15:56:00.469Z,4.40
2019-05-17T15:58:50.843Z,4.50
2019-05-17T16:01:41.066Z,4.20
2019-05-17T16:04:31.343Z,5.10
2019-05-17T16:07:21.543Z,4.93
2019-05-17T16:10:13.448Z,4.20
2019-05-17T16:13:03.787Z,4.57
2019-05-17T16:15:54.965Z,4.80
2019-05-17T16:18:45.183Z,4.67
2019-05-17T16:21:35.502Z,4.80
2019-05-17T16:24:25.653Z,4.40
2019-05-17T16:27:15.900Z,4.77
2019-05-17T16:30:06.352Z,4.90
2019-05-17T16:32:56.673Z,4.70
2019-05-17T16:35:46.892Z,4.53
2019-05-17T16:38:37.189Z,4.80
2019-05-17T16:41:27.136Z,4.67
2019-05-17T16:44:17.334Z,4.33
2019-05-17T16:47:07.684Z,5.10
2019-05-17T16:49:57.962Z,4.47
2019-05-17T16:52:48.319Z,4.50
2019-05-17T16:55:39.809Z,4.60
2019-05-17T16:58:29.776Z,4.93
2019-05-17T17:01:20.090Z,4.60
2019-05-17T17:04:10.329Z,4.60
2019-05-17T17:07:00.588Z,5.10
2019-05-17T17:09:50.812Z,5.23
2019-05-17T17:12:42.130Z,5.03
2019-05-17T17:15:32.369Z,5.00
2019-05-17T17:18:22.654Z,4.83
2019-05-17T17:21:13.268Z,5.40
2019-05-17T17:24:03.740Z,4.87
2019-05-17T17:26:54.908Z,5.40
2019-05-17T17:29:45.252Z,5.40
2019-05-17T17:32:35.495Z,5.60
2019-05-17T17:35:25.546Z,5.60
2019-05-17T17:38:15.687Z,5.23
2019-05-17T17:41:05.971Z,6.00
2019-05-17T17:43:58.854Z,5.00
2019-05-17T17:46:47.753Z,5.90
2019-05-17T17:49:37.835Z,5.33
2019-05-17T17:52:28.360Z,5.10
2019-05-17T17:55:18.692Z,5.43
2019-05-17T17:58:09.075Z,5.33
2019-05-17T18:00:59.042Z,6.13
2019-05-17T18:03:49.267Z,5.57
2019-05-17T18:06:39.299Z,5.27
2019-05-17T18:09:29.598Z,5.03
2019-05-17T18:12:19.769Z,5.33
2019-05-17T18:15:10.056Z,5.80
2019-05-17T18:18:01.558Z,5.50
2019-05-17T18:20:52.543Z,5.27
2019-05-17T18:23:42.932Z,5.20
2019-05-17T18:26:33.872Z,4.90
2019-05-17T18:29:23.823Z,5.07
2019-05-17T18:32:14.113Z,5.30
2019-05-17T18:35:04.500Z,5.17
2019-05-17T18:37:54.731Z,5.17
2019-05-17T18:40:45.009Z,4.90
2019-05-17T18:43:35.346Z,5.20
2019-05-17T18:46:25.608Z,5.40
2019-05-17T18:49:15.970Z,4.73
2019-05-17T18:52:06.350Z,5.57
2019-05-17T18:54:56.765Z,4.90
2019-05-17T18:57:47.040Z,4.80
2019-05-17T19:00:38.482Z,4.90
2019-05-17T19:03:28.795Z,4.93
2019-05-17T19:06:19.091Z,5.07
2019-05-17T19:09:09.563Z,4.93
2019-05-17T19:11:59.590Z,4.27
2019-05-17T19:14:49.845Z,4.67
2019-05-17T19:17:40.213Z,4.77
2019-05-17T19:20:31.261Z,4.63
2019-05-17T19:23:21.689Z,4.83
2019-05-17T19:26:12.090Z,4.67
2019-05-17T19:29:02.562Z,4.57
2019-05-17T19:31:52.464Z,4.40
2019-05-17T19:34:42.670Z,4.40
2019-05-17T19:37:32.867Z,4.27
2019-05-17T19:40:23.083Z,4.33
2019-05-17T19:43:13.286Z,4.33
2019-05-17T19:46:03.527Z,4.57
2019-05-17T19:48:53.753Z,3.97
2019-05-17T19:51:44.273Z,4.80
2019-05-17T19:54:34.656Z,4.60
2019-05-17T19:57:24.965Z,4.40
2019-05-17T20:00:16.051Z,4.10
2019-05-17T20:03:06.081Z,4.13
2019-05-17T20:05:56.007Z,4.50
2019-05-17T20:08:46.239Z,4.30
2019-05-17T20:11:36.472Z,4.43
2019-05-17T20:14:26.710Z,4.47
2019-05-17T20:17:16.840Z,4.40
2019-05-17T20:20:07.399Z,4.37
2019-05-17T20:22:59.093Z,4.23
2019-05-17T20:25:49.254Z,4.47
2019-05-17T20:28:39.380Z,4.73
2019-05-17T20:31:29.653Z,4.23
2019-05-17T20:34:19.846Z,4.47
2019-05-17T20:37:10.155Z,4.60
2019-05-17T20:40:00.045Z,4.33
2019-05-17T20:42:50.316Z,4.63
2019-05-17T20:45:40.599Z,4.60
2019-05-17T20:48:31.075Z,4.53
2019-05-17T20:51:21.435Z,5.03
2019-05-17T20:54:11.506Z,4.60
2019-05-17T20:57:01.399Z,4.53
2019-05-17T20:59:51.652Z,4.60
2019-05-17T21:02:41.647Z,4.83
2019-05-17T21:05:31.919Z,4.93
2019-05-17T21:08:21.949Z,4.80
2019-05-17T21:11:12.031Z,4.50
2019-05-17T21:14:02.258Z,4.50
2019-05-17T21:16:52.694Z,4.70
2019-05-17T21:19:43.022Z,4.80
2019-05-17T21:22:33.353Z,4.83
2019-05-17T21:25:23.655Z,4.70
2019-05-17T21:28:13.953Z,5.00
2019-05-17T21:31:04.188Z,4.83
2019-05-17T21:33:55.390Z,5.20
2019-05-17T21:36:45.633Z,4.90
2019-05-17T21:39:35.686Z,4.73
2019-05-17T21:42:25.888Z,5.13
2019-05-17T21:45:17.276Z,4.90
2019-05-17T21:48:07.649Z,4.73
2019-05-17T21:50:58.037Z,4.93
2019-05-17T21:53:48.273Z,4.90
2019-05-17T21:56:38.540Z,4.70
2019-05-17T21:59:28.436Z,4.67
2019-05-17T22:02:18.756Z,4.57
2019-05-17T22:05:08.943Z,5.07
2019-05-17T22:07:59.292Z,4.93
2019-05-17T22:10:49.653Z,5.40
2019-05-17T22:13:39.817Z,4.90
2019-05-17T22:16:30.202Z,5.13
2019-05-17T22:19:20.465Z,5.17
2019-05-17T22:22:10.635Z,5.30
2019-05-17T22:25:00.645Z,5.50
2019-05-17T22:27:50.923Z,5.07
2019-05-17T22:30:41.292Z,4.57
2019-05-17T22:33:31.504Z,5.00
2019-05-17T22:36:21.897Z,4.83
2019-05-17T22:39:12.199Z,5.13
2019-05-17T22:42:02.609Z,5.13
2019-05-17T22:44:53.016Z,4.77
2019-05-17T22:47:43.211Z,5.13
2019-05-17T22:50:33.020Z,5.47
2019-05-17T22:53:23.301Z,5.40
2019-05-17T22:56:13.607Z,5.00
2019-05-17T22:59:03.710Z,5.23
2019-05-17T23:01:53.944Z,5.40
2019-05-17T23:04:44.259Z,5.30
2019-05-17T23:07:34.322Z,5.27
2019-05-17T23:10:24.785Z,5.10
2019-05-17T23:13:15.172Z,4.80
2019-05-17T23:16:07.308Z,5.10
2019-05-17T23:19:10.169Z,5.27
2019-05-17T23:22:00.477Z,5.00
2019-05-17T23:24:50.651Z,5.30
2019-05-17T23:27:40.925Z,5.20
2019-05-17T23:30:31.153Z,4.90
2019-05-17T23:33:21.508Z,5.17
2019-05-17T23:36:11.772Z,5.50
2019-05-17T23:39:02.282Z,5.40
2019-05-17T23:41:53.455Z,5.33
2019-05-17T23:44:43.671Z,5.20
2019-05-17T23:47:33.572Z,5.60
2019-05-17T23:50:23.862Z,5.50
2019-05-17T23:53:14.114Z,5.43
2019-05-17T23:56:04.272Z,5.63
2019-05-17T23:58:54.520Z,5.73
